createdAt,value
2019-05-20T00:00:30.109Z,56.90
2019-05-20T00:02:59.631Z,56.73
2019-05-20T00:05:30.087Z,68.17
2019-05-20T00:08:00.770Z,65.17
2019-05-20T00:10:30.284Z,55.37
2019-05-20T00:12:59.997Z,54.47
2019-05-20T00:15:29.512Z,59.57
2019-05-20T00:17:59.393Z,61.63
2019-05-20T00:20:29.210Z,58.53
2019-05-20T00:22:59.624Z,60.93
2019-05-20T00:25:29.208Z,62.77
2019-05-20T00:27:58.802Z,72.27
2019-05-20T00:30:28.332Z,71.90
2019-05-20T00:32:58.146Z,72.60
2019-05-20T00:35:27.999Z,80.07
2019-05-20T00:37:57.524Z,81.77
2019-05-20T00:40:27.092Z,76.33
2019-05-20T00:42:56.609Z,77.77
2019-05-20T00:45:27.115Z,78.13
2019-05-20T00:47:57.057Z,77.97
2019-05-20T00:50:26.633Z,82.47
2019-05-20T00:52:56.422Z,80.27
2019-05-20T00:55:28.053Z,62.73
2019-05-20T00:57:58.222Z,74.77
2019-05-20T01:00:28.085Z,75.43
2019-05-20T01:02:57.765Z,80.23
2019-05-20T01:05:27.693Z,70.27
2019-05-20T01:07:57.267Z,70.17
2019-05-20T01:10:26.775Z,64.33
2019-05-20T01:12:56.471Z,64.20
2019-05-20T01:15:26.082Z,74.70
2019-05-20T01:17:55.579Z,83.63
2019-05-20T01:20:25.526Z,72.07
2019-05-20T01:22:55.538Z,69.50
2019-05-20T01:25:25.111Z,70.10
2019-05-20T01:27:54.640Z,65.60
2019-05-20T01:30:24.178Z,76.83
2019-05-20T01:32:53.743Z,78.03
2019-05-20T01:35:23.252Z,72.97
2019-05-20T01:37:52.829Z,74.47
2019-05-20T01:40:22.682Z,80.63
2019-05-20T01:42:52.540Z,82.37
2019-05-20T01:45:22.505Z,71.47
2019-05-20T01:47:52.042Z,71.93
2019-05-20T01:50:21.547Z,77.10
2019-05-20T01:52:51.139Z,70.97
2019-05-20T01:55:20.742Z,75.37
2019-05-20T01:57:50.343Z,72.03
2019-05-20T02:00:19.949Z,71.00
2019-05-20T02:02:49.462Z,71.95
2019-05-20T02:05:19.391Z,68.60
2019-05-20T02:07:49.618Z,67.20
2019-05-20T02:10:19.438Z,69.07
2019-05-20T02:12:48.947Z,69.10
2019-05-20T02:15:33.270Z,70.07
2019-05-20T02:18:02.849Z,64.23
2019-05-20T02:20:32.524Z,68.00
2019-05-20T02:23:17.438Z,64.40
2019-05-20T02:25:47.344Z,62.97
2019-05-20T02:28:16.991Z,57.08
2019-05-20T02:30:46.658Z,56.63
2019-05-20T02:33:16.613Z,51.20
2019-05-20T02:35:46.218Z,52.08
2019-05-20T02:38:16.549Z,49.00
2019-05-20T02:40:46.195Z,44.23
2019-05-20T02:43:16.073Z,47.45
2019-05-20T02:45:46.019Z,46.00
2019-05-20T02:48:15.639Z,45.97
2019-05-20T02:50:45.185Z,43.92
2019-05-20T02:53:15.125Z,44.85
2019-05-20T02:55:44.726Z,40.97
2019-05-20T02:58:14.635Z,43.13
2019-05-20T03:00:44.154Z,41.20
2019-05-20T03:03:14.127Z,40.03
2019-05-20T03:05:44.010Z,41.50
2019-05-20T03:08:13.599Z,40.00
2019-05-20T03:10:43.168Z,38.67
2019-05-20T03:13:12.759Z,39.75
2019-05-20T03:15:42.694Z,38.67
2019-05-20T03:18:12.272Z,38.10
2019-05-20T03:20:42.138Z,37.87
2019-05-20T03:23:11.683Z,36.90
2019-05-20T03:25:41.652Z,37.38
2019-05-20T03:28:11.238Z,36.83
2019-05-20T03:30:40.905Z,36.42
2019-05-20T03:33:10.559Z,38.85
2019-05-20T03:35:40.198Z,36.70
2019-05-20T03:38:09.779Z,37.10
2019-05-20T03:40:39.303Z,36.50
2019-05-20T03:43:09.500Z,38.08
2019-05-20T03:45:39.340Z,38.67
2019-05-20T03:48:08.916Z,36.00
2019-05-20T03:50:38.516Z,37.20
2019-05-20T03:53:08.802Z,37.60
2019-05-20T03:55:38.462Z,37.05
2019-05-20T03:58:08.059Z,34.92
2019-05-20T04:00:47.813Z,35.50
2019-05-20T04:03:17.630Z,33.85
2019-05-20T04:05:47.519Z,33.35
2019-05-20T04:08:18.162Z,31.75
2019-05-20T04:10:47.685Z,31.48
2019-05-20T04:13:17.275Z,32.55
2019-05-20T04:15:46.885Z,31.02
2019-05-20T04:18:16.948Z,30.45
2019-05-20T04:20:46.556Z,30.20
2019-05-20T04:23:16.522Z,29.02
2019-05-20T04:25:46.914Z,29.25
2019-05-20T04:28:17.023Z,29.12
2019-05-20T04:30:46.931Z,27.87
2019-05-20T04:33:16.521Z,28.90
2019-05-20T04:35:49.609Z,28.73
2019-05-20T04:38:17.754Z,28.45
2019-05-20T04:40:47.304Z,29.02
2019-05-20T04:43:17.292Z,28.90
2019-05-20T04:45:46.862Z,29.07
2019-05-20T04:48:16.509Z,29.23
2019-05-20T04:50:46.014Z,30.45
2019-05-20T04:53:15.631Z,30.95
2019-05-20T04:55:45.413Z,29.30
2019-05-20T04:58:14.993Z,32.00
2019-05-20T05:00:51.974Z,31.60
2019-05-20T05:03:22.999Z,33.95
2019-05-20T05:05:52.486Z,33.75
2019-05-20T05:08:22.563Z,32.75
2019-05-20T05:10:52.363Z,33.63
2019-05-20T05:13:22.452Z,31.87
2019-05-20T05:15:52.310Z,30.52
2019-05-20T05:18:22.156Z,28.87
2019-05-20T05:20:51.968Z,28.17
2019-05-20T05:23:21.564Z,27.25
2019-05-20T05:25:51.083Z,27.50
2019-05-20T05:28:21.061Z,26.85
2019-05-20T05:30:50.667Z,27.15
2019-05-20T05:33:32.395Z,28.32
2019-05-20T05:36:02.021Z,26.68
2019-05-20T05:38:32.751Z,26.35
2019-05-20T05:41:02.716Z,27.70
2019-05-20T05:43:32.403Z,26.20
2019-05-20T05:46:02.481Z,26.50
2019-05-20T05:48:32.047Z,23.75
2019-05-20T05:51:02.038Z,25.33
2019-05-20T05:53:31.596Z,25.23
2019-05-20T05:56:01.539Z,24.57
2019-05-20T05:58:31.409Z,25.20
2019-05-20T06:01:01.154Z,25.43
2019-05-20T06:03:30.987Z,26.48
2019-05-20T06:06:11.446Z,26.82
2019-05-20T06:08:31.820Z,26.25
2019-05-20T06:11:01.765Z,26.27
2019-05-20T06:13:31.338Z,26.00
2019-05-20T06:16:00.927Z,24.15
2019-05-20T06:18:30.494Z,26.15
2019-05-20T06:21:00.159Z,25.95
2019-05-20T06:23:29.725Z,25.57
2019-05-20T06:25:59.236Z,25.52
2019-05-20T06:28:28.884Z,26.80
2019-05-20T06:30:58.387Z,25.62
2019-05-20T06:33:28.096Z,26.40
2019-05-20T06:35:57.606Z,26.97
2019-05-20T06:38:47.636Z,26.60
2019-05-20T06:41:17.262Z,25.43
2019-05-20T06:43:47.220Z,27.20
2019-05-20T06:46:17.167Z,26.27
2019-05-20T06:48:47.060Z,26.55
2019-05-20T06:51:16.566Z,25.55
2019-05-20T06:53:47.113Z,26.30
2019-05-20T06:56:16.609Z,26.52
2019-05-20T06:58:46.411Z,24.98
2019-05-20T07:01:15.918Z,25.55
2019-05-20T07:03:45.774Z,25.90
2019-05-20T07:06:15.842Z,26.00
2019-05-20T07:08:45.447Z,26.00
2019-05-20T07:11:16.906Z,24.80
2019-05-20T07:13:46.388Z,26.55
2019-05-20T07:16:16.241Z,25.08
2019-05-20T07:18:46.792Z,26.05
2019-05-20T07:21:16.438Z,24.82
2019-05-20T07:23:46.068Z,24.37
2019-05-20T07:26:15.881Z,25.30
2019-05-20T07:28:45.844Z,24.32
2019-05-20T07:31:15.422Z,24.00
2019-05-20T07:33:45.233Z,24.45
2019-05-20T07:36:14.805Z,24.75
2019-05-20T07:38:44.642Z,24.07
2019-05-20T07:41:15.232Z,24.60
2019-05-20T07:43:44.955Z,24.52
2019-05-20T07:46:14.449Z,23.92
2019-05-20T07:48:44.102Z,24.80
2019-05-20T07:51:14.469Z,24.12
2019-05-20T07:53:44.616Z,23.83
2019-05-20T07:56:16.038Z,24.20
2019-05-20T07:58:47.552Z,24.40
2019-05-20T08:01:17.124Z,23.95
2019-05-20T08:03:47.766Z,23.35
2019-05-20T08:06:17.361Z,22.98
2019-05-20T08:08:46.922Z,23.30
2019-05-20T08:11:16.559Z,23.00
2019-05-20T08:13:46.422Z,22.02
2019-05-20T08:16:15.929Z,22.82
2019-05-20T08:18:45.666Z,22.42
2019-05-20T08:21:15.252Z,22.90
2019-05-20T08:23:44.862Z,21.50
2019-05-20T08:26:14.357Z,22.48
2019-05-20T08:28:45.307Z,22.27
2019-05-20T08:31:14.895Z,24.07
2019-05-20T08:33:44.584Z,23.38
2019-05-20T08:36:14.163Z,23.90
2019-05-20T08:38:43.895Z,23.18
2019-05-20T08:41:13.855Z,22.65
2019-05-20T08:43:43.453Z,22.70
2019-05-20T08:46:14.475Z,22.35
2019-05-20T08:48:44.096Z,23.87
2019-05-20T08:51:13.905Z,24.45
2019-05-20T08:53:43.485Z,23.45
2019-05-20T08:56:13.002Z,22.82
2019-05-20T08:58:42.593Z,24.40
2019-05-20T09:01:12.602Z,22.32
2019-05-20T09:03:42.330Z,22.10
2019-05-20T09:06:11.913Z,21.82
2019-05-20T09:08:41.556Z,22.45
2019-05-20T09:11:11.086Z,23.62
2019-05-20T09:13:40.913Z,22.67
2019-05-20T09:16:10.497Z,22.35
2019-05-20T09:18:40.013Z,23.00
2019-05-20T09:21:10.145Z,22.10
2019-05-20T09:23:40.439Z,22.42
2019-05-20T09:26:09.942Z,23.07
2019-05-20T09:28:40.189Z,22.93
2019-05-20T09:31:09.776Z,22.55
2019-05-20T09:33:39.745Z,23.52
2019-05-20T09:36:09.390Z,22.45
2019-05-20T09:38:39.243Z,23.87
2019-05-20T09:41:08.943Z,23.45
2019-05-20T09:43:38.765Z,25.00
2019-05-20T09:46:09.504Z,24.87
2019-05-20T09:48:39.465Z,26.35
2019-05-20T09:51:09.275Z,27.20
2019-05-20T09:53:39.676Z,26.25
2019-05-20T09:56:09.246Z,26.95
2019-05-20T09:58:38.829Z,28.35
2019-05-20T10:01:08.677Z,26.27
2019-05-20T10:03:38.258Z,27.90
2019-05-20T10:06:07.925Z,27.52
2019-05-20T10:08:44.247Z,29.20
2019-05-20T10:11:08.848Z,28.65
2019-05-20T10:13:38.921Z,28.47
2019-05-20T10:16:09.472Z,29.10
2019-05-20T10:18:39.483Z,27.87
2019-05-20T10:21:09.330Z,28.38
2019-05-20T10:23:39.222Z,29.48
2019-05-20T10:26:08.833Z,30.05
2019-05-20T10:28:42.214Z,29.90
2019-05-20T10:31:09.975Z,31.85
2019-05-20T10:33:39.748Z,31.70
2019-05-20T10:36:10.444Z,32.48
2019-05-20T10:38:56.890Z,32.83
2019-05-20T10:41:11.162Z,33.05
2019-05-20T10:43:40.965Z,32.90
2019-05-20T10:46:10.931Z,33.80
2019-05-20T10:48:40.422Z,34.33
2019-05-20T10:51:10.582Z,30.40
2019-05-20T10:53:40.367Z,30.30
2019-05-20T10:56:10.227Z,30.52
2019-05-20T10:58:39.987Z,31.52
2019-05-20T11:01:10.614Z,31.45
2019-05-20T11:03:40.321Z,30.85
2019-05-20T11:06:09.906Z,31.10
2019-05-20T11:08:39.780Z,32.98
2019-05-20T11:11:13.868Z,31.48
2019-05-20T11:13:41.605Z,32.53
2019-05-20T11:16:11.192Z,32.75
2019-05-20T11:18:40.782Z,32.08
2019-05-20T11:21:10.275Z,32.53
2019-05-20T11:23:40.271Z,34.20
2019-05-20T11:26:09.849Z,33.70
2019-05-20T11:28:39.413Z,32.70
2019-05-20T11:31:08.927Z,32.83
2019-05-20T11:33:39.042Z,33.30
2019-05-20T11:36:08.589Z,34.00
2019-05-20T11:38:38.154Z,32.50
2019-05-20T11:41:08.040Z,32.98
2019-05-20T11:43:37.539Z,32.17
2019-05-20T11:46:07.070Z,32.80
2019-05-20T11:48:36.678Z,31.40
2019-05-20T11:51:06.384Z,31.95
2019-05-20T11:53:35.946Z,32.10
2019-05-20T11:56:05.532Z,31.65
2019-05-20T11:58:35.562Z,30.45
2019-05-20T12:01:05.525Z,30.65
2019-05-20T12:03:35.567Z,30.05
2019-05-20T12:06:05.689Z,28.70
2019-05-20T12:08:35.645Z,28.90
2019-05-20T12:11:05.227Z,30.57
2019-05-20T12:13:35.088Z,29.70
2019-05-20T12:16:05.642Z,28.32
2019-05-20T12:18:35.140Z,29.07
2019-05-20T12:21:04.729Z,30.92
2019-05-20T12:23:34.294Z,29.12
2019-05-20T12:26:03.979Z,29.92
2019-05-20T12:28:33.838Z,29.23
2019-05-20T12:31:03.528Z,29.85
2019-05-20T12:33:33.393Z,31.87
2019-05-20T12:36:03.502Z,31.05
2019-05-20T12:38:33.026Z,31.70
2019-05-20T12:41:10.943Z,31.41
2019-05-20T12:43:44.268Z,32.03
2019-05-20T12:46:11.729Z,30.97
2019-05-20T12:48:41.255Z,30.68
2019-05-20T12:51:14.352Z,30.97
2019-05-20T12:53:42.521Z,31.05
2019-05-20T12:56:12.005Z,31.82
2019-05-20T12:58:41.507Z,32.20
2019-05-20T13:01:11.092Z,31.40
2019-05-20T13:03:40.664Z,32.50
2019-05-20T13:06:10.250Z,34.27
2019-05-20T13:08:40.261Z,33.73
2019-05-20T13:11:09.917Z,34.45
2019-05-20T13:13:39.803Z,34.40
2019-05-20T13:16:09.807Z,34.30
2019-05-20T13:18:53.497Z,34.45
2019-05-20T13:21:10.874Z,33.92
2019-05-20T13:23:40.608Z,34.40
2019-05-20T13:26:10.248Z,34.67
2019-05-20T13:28:40.233Z,33.40
2019-05-20T13:31:10.002Z,33.67
2019-05-20T13:33:39.524Z,32.53
2019-05-20T13:36:09.086Z,32.98
2019-05-20T13:38:38.883Z,33.23
2019-05-20T13:41:08.371Z,34.13
2019-05-20T13:43:38.202Z,33.50
2019-05-20T13:46:08.189Z,33.55
2019-05-20T13:48:39.041Z,33.40
2019-05-20T13:51:08.636Z,34.38
2019-05-20T13:53:38.601Z,33.60
2019-05-20T13:56:09.242Z,33.42
2019-05-20T13:58:38.784Z,33.55
2019-05-20T14:01:08.434Z,33.78
2019-05-20T14:03:38.026Z,33.78
2019-05-20T14:06:07.860Z,32.67
2019-05-20T14:08:37.529Z,31.27
2019-05-20T14:11:07.033Z,30.77
2019-05-20T14:13:36.778Z,31.85
2019-05-20T14:16:06.377Z,32.20
2019-05-20T14:18:36.029Z,31.68
2019-05-20T14:21:05.608Z,31.07
2019-05-20T14:23:35.163Z,31.12
2019-05-20T14:26:04.863Z,30.37
2019-05-20T14:28:34.758Z,30.62
2019-05-20T14:31:06.224Z,31.27
2019-05-20T14:33:36.554Z,31.62
2019-05-20T14:36:06.422Z,31.27
2019-05-20T14:38:36.087Z,31.35
2019-05-20T14:41:20.337Z,31.37
2019-05-20T14:43:36.988Z,32.08
2019-05-20T14:46:06.650Z,31.43
2019-05-20T14:48:36.929Z,33.90
2019-05-20T14:51:06.687Z,34.25
2019-05-20T14:53:36.328Z,32.78
2019-05-20T14:56:05.900Z,31.90
2019-05-20T14:58:35.395Z,34.43
2019-05-20T15:01:04.981Z,35.60
2019-05-20T15:03:34.541Z,34.48
2019-05-20T15:06:04.158Z,35.58
2019-05-20T15:08:35.019Z,35.60
2019-05-20T15:11:05.018Z,36.28
2019-05-20T15:13:35.718Z,35.20
2019-05-20T15:16:05.315Z,35.38
2019-05-20T15:18:36.244Z,36.10
2019-05-20T15:21:05.761Z,35.38
2019-05-20T15:23:35.574Z,34.90
2019-05-20T15:26:05.442Z,36.53
2019-05-20T15:28:36.575Z,38.05
2019-05-20T15:31:06.513Z,37.25
2019-05-20T15:33:36.101Z,36.68
2019-05-20T15:36:05.695Z,36.42
2019-05-20T15:38:35.600Z,34.63
2019-05-20T15:41:05.207Z,34.92
2019-05-20T15:43:35.229Z,34.83
2019-05-20T15:46:04.785Z,35.50
2019-05-20T15:48:34.410Z,35.13
2019-05-20T15:51:04.321Z,34.98
2019-05-20T15:53:33.933Z,34.88
2019-05-20T15:56:03.672Z,35.25
2019-05-20T15:58:34.320Z,33.85
2019-05-20T16:01:03.965Z,34.58
2019-05-20T16:03:33.478Z,35.58
2019-05-20T16:06:03.014Z,31.00
2019-05-20T16:08:32.951Z,31.82
2019-05-20T16:11:06.411Z,32.95
2019-05-20T16:13:33.829Z,31.77
2019-05-20T16:16:04.043Z,31.73
2019-05-20T16:18:33.948Z,32.13
2019-05-20T16:21:03.462Z,32.63
2019-05-20T16:23:33.071Z,31.35
2019-05-20T16:26:02.794Z,30.50
2019-05-20T16:28:32.540Z,29.55
2019-05-20T16:31:02.231Z,30.62
2019-05-20T16:33:32.688Z,30.02
2019-05-20T16:36:02.276Z,29.80
2019-05-20T16:38:33.040Z,27.93
2019-05-20T16:41:02.617Z,29.65
2019-05-20T16:43:32.234Z,29.18
2019-05-20T16:46:01.751Z,29.35
2019-05-20T16:48:32.470Z,29.27
2019-05-20T16:51:02.420Z,30.40
2019-05-20T16:53:32.089Z,29.92
2019-05-20T16:56:01.744Z,29.82
2019-05-20T16:58:31.251Z,28.92
2019-05-20T17:01:01.234Z,31.12
2019-05-20T17:03:30.855Z,29.23
2019-05-20T17:06:00.411Z,28.85
2019-05-20T17:08:30.195Z,29.40
2019-05-20T17:10:59.755Z,28.87
2019-05-20T17:13:29.804Z,29.37
2019-05-20T17:15:59.509Z,30.30
2019-05-20T17:18:29.027Z,29.77
2019-05-20T17:20:58.940Z,30.25
2019-05-20T17:23:28.801Z,30.37
2019-05-20T17:25:58.779Z,29.25
2019-05-20T17:28:28.679Z,29.70
2019-05-20T17:30:58.422Z,29.67
2019-05-20T17:33:28.095Z,27.15
2019-05-20T17:35:57.662Z,29.45
2019-05-20T17:38:28.356Z,29.48
2019-05-20T17:40:59.265Z,29.70
2019-05-20T17:43:29.015Z,29.05
2019-05-20T17:45:58.519Z,29.02
2019-05-20T17:48:28.750Z,28.75
2019-05-20T17:50:58.711Z,28.07
2019-05-20T17:53:28.749Z,29.57
2019-05-20T17:55:58.237Z,28.05
2019-05-20T17:58:27.831Z,28.38
2019-05-20T18:01:13.381Z,26.80
2019-05-20T18:03:29.440Z,28.50
2019-05-20T18:05:59.094Z,27.82
2019-05-20T18:08:30.396Z,27.58
2019-05-20T18:10:59.969Z,26.23
2019-05-20T18:13:29.821Z,26.45
2019-05-20T18:15:59.444Z,25.57
2019-05-20T18:18:29.044Z,25.77
2019-05-20T18:20:58.707Z,26.12
2019-05-20T18:23:28.742Z,25.60
2019-05-20T18:25:58.684Z,26.27
2019-05-20T18:28:28.563Z,25.80
2019-05-20T18:30:58.243Z,25.35
2019-05-20T18:33:27.823Z,25.10
2019-05-20T18:35:57.321Z,24.02
2019-05-20T18:38:26.866Z,24.20
2019-05-20T18:40:56.712Z,25.32
2019-05-20T18:43:26.277Z,25.68
2019-05-20T18:45:55.867Z,25.32
2019-05-20T18:48:25.492Z,25.92
2019-05-20T18:50:55.084Z,26.00
2019-05-20T18:53:24.724Z,25.43
2019-05-20T18:55:54.255Z,25.12
2019-05-20T18:58:24.058Z,26.73
2019-05-20T19:00:54.016Z,25.32
2019-05-20T19:03:24.377Z,26.73
2019-05-20T19:05:54.226Z,26.68
2019-05-20T19:08:25.613Z,26.90
2019-05-20T19:10:55.217Z,27.13
2019-05-20T19:13:25.073Z,28.07
2019-05-20T19:15:54.821Z,27.60
2019-05-20T19:18:24.381Z,27.73
2019-05-20T19:20:54.166Z,28.85
2019-05-20T19:23:23.770Z,27.73
2019-05-20T19:25:53.380Z,28.35
2019-05-20T19:28:24.091Z,28.98
2019-05-20T19:30:54.240Z,28.62
2019-05-20T19:33:24.235Z,28.55
2019-05-20T19:35:54.544Z,29.10
2019-05-20T19:38:24.253Z,29.72
2019-05-20T19:40:54.159Z,27.67
2019-05-20T19:43:23.776Z,29.60
2019-05-20T19:45:54.452Z,29.42
2019-05-20T19:48:24.038Z,29.35
2019-05-20T19:51:00.648Z,29.58
2019-05-20T19:53:30.236Z,28.90
2019-05-20T19:55:59.827Z,29.45
2019-05-20T19:58:29.385Z,28.67
2019-05-20T20:00:59.182Z,28.42
2019-05-20T20:03:28.802Z,30.45
2019-05-20T20:05:58.768Z,29.77
2019-05-20T20:08:29.245Z,30.15
2019-05-20T20:10:58.761Z,29.12
2019-05-20T20:13:28.355Z,30.45
2019-05-20T20:15:58.018Z,29.67
2019-05-20T20:18:27.653Z,30.20
2019-05-20T20:20:57.221Z,29.65
2019-05-20T20:23:26.744Z,29.50
2019-05-20T20:25:56.262Z,29.63
2019-05-20T20:28:26.143Z,29.20
2019-05-20T20:30:56.070Z,27.95
2019-05-20T20:33:25.829Z,29.12
2019-05-20T20:35:55.818Z,30.77
2019-05-20T20:38:25.710Z,31.10
2019-05-20T20:40:55.280Z,31.07
2019-05-20T20:43:25.206Z,32.63
2019-05-20T20:45:54.884Z,30.25
2019-05-20T20:48:24.512Z,32.63
2019-05-20T20:50:54.054Z,32.08
2019-05-20T20:53:23.711Z,32.60
2019-05-20T20:55:53.295Z,31.60
2019-05-20T20:58:22.888Z,33.40
2019-05-20T21:00:52.803Z,34.92
2019-05-20T21:03:23.361Z,35.65
2019-05-20T21:05:53.077Z,36.00
2019-05-20T21:08:22.931Z,36.40
2019-05-20T21:10:53.511Z,37.35
2019-05-20T21:13:23.004Z,38.10
2019-05-20T21:15:52.577Z,38.45
2019-05-20T21:18:22.235Z,37.58
2019-05-20T21:20:52.204Z,38.38
2019-05-20T21:23:21.703Z,38.60
2019-05-20T21:25:51.630Z,38.15
2019-05-20T21:28:21.464Z,37.65
2019-05-20T21:30:51.099Z,37.15
2019-05-20T21:33:20.622Z,38.40
2019-05-20T21:35:51.739Z,35.83
2019-05-20T21:38:21.322Z,36.50
2019-05-20T21:40:50.987Z,35.55
2019-05-20T21:43:20.523Z,35.10
2019-05-20T21:45:50.165Z,34.67
2019-05-20T21:48:19.678Z,34.38
2019-05-20T21:50:49.183Z,34.03
2019-05-20T21:53:18.681Z,33.67
2019-05-20T21:55:48.189Z,32.48
2019-05-20T21:58:17.763Z,34.50
2019-05-20T22:00:51.387Z,33.67
2019-05-20T22:03:24.511Z,33.78
2019-05-20T22:05:52.238Z,37.23
2019-05-20T22:08:21.752Z,37.42
2019-05-20T22:10:51.944Z,39.30
2019-05-20T22:13:21.459Z,40.03
2019-05-20T22:15:51.601Z,40.83
2019-05-20T22:18:21.194Z,41.90
2019-05-20T22:20:50.750Z,41.92
2019-05-20T22:23:42.414Z,45.73
2019-05-20T22:26:11.904Z,43.52
2019-05-20T22:28:41.415Z,41.50
2019-05-20T22:31:10.995Z,42.30
2019-05-20T22:33:42.529Z,42.08
2019-05-20T22:36:12.141Z,40.80
2019-05-20T22:38:41.692Z,40.70
2019-05-20T22:41:12.241Z,40.90
2019-05-20T22:43:41.813Z,41.37
2019-05-20T22:46:11.895Z,41.08
2019-05-20T22:48:41.584Z,41.55
2019-05-20T22:51:11.091Z,42.17
2019-05-20T22:53:41.725Z,41.73
2019-05-20T22:56:11.225Z,39.73
2019-05-20T22:58:40.806Z,41.73
2019-05-20T23:01:10.303Z,42.53
2019-05-20T23:03:39.799Z,43.03
2019-05-20T23:06:09.382Z,43.28
2019-05-20T23:08:39.366Z,44.80
2019-05-20T23:11:08.864Z,43.53
2019-05-20T23:13:38.437Z,44.17
2019-05-20T23:16:07.928Z,45.27
2019-05-20T23:18:37.520Z,45.33
2019-05-20T23:21:07.160Z,44.53
2019-05-20T23:23:36.663Z,43.97
2019-05-20T23:26:06.168Z,45.90
2019-05-20T23:28:35.721Z,47.25
2019-05-20T23:31:05.493Z,48.20
2019-05-20T23:33:35.141Z,48.52
2019-05-20T23:36:04.628Z,48.57
2019-05-20T23:38:34.161Z,48.33
2019-05-20T23:41:03.707Z,49.53
2019-05-20T23:43:33.470Z,46.80
2019-05-20T23:46:02.971Z,45.07
2019-05-20T23:48:32.473Z,46.87
2019-05-20T23:51:02.067Z,44.05
2019-05-20T23:53:31.656Z,40.57
2019-05-20T23:56:01.165Z,34.58
2019-05-20T23:58:30.744Z,32.40
